This is the latest recevied weather packets stored in our database for station/object SP3ZBZ-13. If no packets are shown the sender has not sent any weather packets the latest 10 day(s).
| Time | Temp. | Humidity | Pressure | Rain* | Wind** | Luminosity | Snow |
|---|---|---|---|---|---|---|---|
| 1788617509 | 18.33° C | 65% | 1008.2 hPa | 7.11 mm | - | 341 W/m² | - |
| 1788616609 | 17.78° C | 64% | 1008.5 hPa | 7.11 mm | - | 534 W/m² | - |
| 1788615707 | 17.78° C | 64% | 1008.4 hPa | 7.11 mm | - | 133 W/m² | - |
| 1788614806 | 18.33° C | 61% | 1008.3 hPa | 7.11 mm | - | 510 W/m² | - |
| 1788613905 | 18.33° C | 60% | 1008.4 hPa | 7.11 mm | - | 476 W/m² | - |
| 1788613004 | 18.33° C | 65% | 1008.2 hPa | 7.11 mm | - | 284 W/m² | - |
| 1788612103 | 18.33° C | 67% | 1008.2 hPa | 7.11 mm | - | 729 W/m² | - |
| 1788611201 | 18.33° C | 71% | 1008.2 hPa | 7.11 mm | - | 526 W/m² | - |
| 1788610300 | 17.22° C | 71% | 1008.1 hPa | 7.11 mm | - | 536 W/m² | - |
| 1788609400 | 16.11° C | 77% | 1008.3 hPa | 7.11 mm | - | 112 W/m² | - |
| 1788608499 | 16.67° C | 81% | 1007.8 hPa | 7.11 mm | - | 137 W/m² | - |
| 1788607598 | 15.56° C | 84% | 1008 hPa | 7.11 mm | - | 195 W/m² | - |
| 1788606697 | 18.33° C | 67% | 1007.6 hPa | 4.83 mm | - | 58 W/m² | - |
| 1788605796 | 18.33° C | 64% | 1008 hPa | 4.83 mm | - | 338 W/m² | - |
| 1788604895 | 18.33° C | 63% | 1008 hPa | 4.83 mm | - | 238 W/m² | - |
| 1788603994 | 18.33° C | 63% | 1007.9 hPa | 5.33 mm | - | 214 W/m² | - |
| 1788603093 | 18.33° C | 64% | 1007.9 hPa | 5.33 mm | - | 272 W/m² | - |
| 1788602191 | 18.33° C | 65% | 1007.9 hPa | 5.33 mm | - | 301 W/m² | - |
| 1788601291 | 17.78° C | 67% | 1007.8 hPa | 5.33 mm | - | 608 W/m² | - |
| 1788600389 | 17.78° C | 68% | 1007.8 hPa | 5.33 mm | - | 361 W/m² | - |
| 1788599488 | 17.22° C | 70% | 1007.8 hPa | 5.33 mm | - | 96 W/m² | - |
| 1788598588 | 16.67° C | 70% | 1007.5 hPa | 5.33 mm | - | 124 W/m² | - |
| 1788597687 | 17.22° C | 69% | 1007.5 hPa | 5.33 mm | - | 516 W/m² | - |
| 1788596786 | 16.67° C | 71% | 1007.5 hPa | 5.33 mm | - | 502 W/m² | - |
| 1788595884 | 16.67° C | 71% | 1007.4 hPa | 5.33 mm | - | 175 W/m² | - |
* Rain latest 24 hours (hover to see other rain measurements)
** Current wind speed in m/s (hover to see current wind gust speed)